createdAt,value
2022-09-15T00:00:00.833Z,38.90
2022-09-15T00:01:00.842Z,37.20
2022-09-15T00:02:01.014Z,40.80
2022-09-15T00:03:00.904Z,45.60
2022-09-15T00:04:00.797Z,44.80
2022-09-15T00:05:00.797Z,38.50
2022-09-15T00:06:00.784Z,40.50
2022-09-15T00:07:00.783Z,43.70
2022-09-15T00:08:00.751Z,37.80
2022-09-15T00:09:00.796Z,43.80
2022-09-15T00:10:00.720Z,37.00
2022-09-15T00:11:00.730Z,41.00
2022-09-15T00:12:00.735Z,40.60
2022-09-15T00:13:00.708Z,39.00
2022-09-15T00:14:00.689Z,41.00
2022-09-15T00:15:00.698Z,39.10
2022-09-15T00:16:00.671Z,35.40
2022-09-15T00:17:00.769Z,33.70
2022-09-15T00:18:00.654Z,36.10
2022-09-15T00:19:00.652Z,39.40
2022-09-15T00:20:00.638Z,39.80
2022-09-15T00:21:00.627Z,35.90
2022-09-15T00:22:00.629Z,39.50
2022-09-15T00:23:00.604Z,36.10
2022-09-15T00:24:00.601Z,34.20
2022-09-15T00:25:00.577Z,35.40
2022-09-15T00:26:00.577Z,37.10
2022-09-15T00:27:00.580Z,43.40
2022-09-15T00:28:00.555Z,39.30
2022-09-15T00:29:00.554Z,42.20
2022-09-15T00:30:00.558Z,39.30
2022-09-15T00:31:00.597Z,47.20
2022-09-15T00:32:00.533Z,42.10
2022-09-15T00:33:00.512Z,46.60
2022-09-15T00:34:00.497Z,41.50
2022-09-15T00:35:00.492Z,40.50
2022-09-15T00:36:00.477Z,42.50
2022-09-15T00:37:00.483Z,48.30
2022-09-15T00:38:00.490Z,39.40
2022-09-15T00:39:00.459Z,46.50
2022-09-15T00:40:00.483Z,52.70
2022-09-15T00:41:00.424Z,49.50
2022-09-15T00:42:00.476Z,47.60
2022-09-15T00:43:00.428Z,50.40
2022-09-15T00:44:00.411Z,49.40
2022-09-15T00:45:00.380Z,47.50
2022-09-15T00:46:00.478Z,42.20
2022-09-15T00:47:18.371Z,44.20
2022-09-15T00:48:02.364Z,43.00
2022-09-15T00:49:00.346Z,44.40
2022-09-15T00:50:00.345Z,42.80
2022-09-15T00:51:00.336Z,44.10
2022-09-15T00:52:00.359Z,43.90
2022-09-15T00:53:00.315Z,52.00
2022-09-15T00:54:00.307Z,53.80
2022-09-15T00:55:00.300Z,45.20
2022-09-15T00:56:00.288Z,45.20
2022-09-15T00:57:00.293Z,49.60
2022-09-15T00:58:00.284Z,59.10
2022-09-15T00:59:00.263Z,57.90
2022-09-15T01:00:00.248Z,58.60
2022-09-15T01:01:00.255Z,62.60
2022-09-15T01:02:00.326Z,64.60
2022-09-15T01:03:00.219Z,69.50
2022-09-15T01:04:00.208Z,64.40
2022-09-15T01:05:00.196Z,73.10
2022-09-15T01:06:00.218Z,70.20
2022-09-15T01:07:00.193Z,70.00
2022-09-15T01:08:00.175Z,77.70
2022-09-15T01:09:00.159Z,66.70
2022-09-15T01:10:00.179Z,64.30
2022-09-15T01:11:00.139Z,69.40
2022-09-15T01:12:00.151Z,73.70
2022-09-15T01:13:00.125Z,76.20
2022-09-15T01:14:00.114Z,77.60
2022-09-15T01:15:00.113Z,74.40
2022-09-15T01:16:00.225Z,72.80
2022-09-15T01:17:00.087Z,64.10
2022-09-15T01:18:00.085Z,64.30
2022-09-15T01:19:00.070Z,75.70
2022-09-15T01:20:00.092Z,67.60
2022-09-15T01:21:00.050Z,70.40
2022-09-15T01:22:00.061Z,76.40
2022-09-15T01:23:00.027Z,75.40
2022-09-15T01:24:00.015Z,75.50
2022-09-15T01:24:59.999Z,74.60
2022-09-15T01:25:59.999Z,71.40
2022-09-15T01:27:00.010Z,67.80
2022-09-15T01:27:59.975Z,71.60
2022-09-15T01:28:59.966Z,75.60
2022-09-15T01:29:59.958Z,78.50
2022-09-15T01:30:59.948Z,78.20
2022-09-15T01:32:00.039Z,73.70
2022-09-15T01:32:59.912Z,76.60
2022-09-15T01:33:59.928Z,81.30
2022-09-15T01:34:59.905Z,80.50
2022-09-15T01:35:59.905Z,78.40
2022-09-15T01:36:59.891Z,78.40
2022-09-15T01:37:59.881Z,76.10
2022-09-15T01:38:59.866Z,78.80
2022-09-15T01:39:59.883Z,72.30
2022-09-15T01:40:59.841Z,69.70
2022-09-15T01:41:59.851Z,70.50
2022-09-15T01:42:59.839Z,67.80
2022-09-15T01:43:59.811Z,69.70
2022-09-15T01:44:59.799Z,71.20
2022-09-15T01:45:59.868Z,65.30
2022-09-15T01:46:59.806Z,73.60
2022-09-15T01:47:59.775Z,72.60
2022-09-15T01:48:59.768Z,69.60
2022-09-15T01:49:59.753Z,63.50
2022-09-15T01:50:59.749Z,67.90
2022-09-15T01:51:59.758Z,67.80
2022-09-15T01:52:59.727Z,62.20
2022-09-15T01:53:59.719Z,67.00
2022-09-15T01:54:59.755Z,69.60
2022-09-15T01:55:59.701Z,64.20
2022-09-15T01:56:59.701Z,65.60
2022-09-15T01:57:59.686Z,64.10
2022-09-15T01:58:59.668Z,63.80
2022-09-15T01:59:59.656Z,63.90
2022-09-15T02:00:59.682Z,62.60
2022-09-15T02:01:59.689Z,66.70
2022-09-15T02:02:59.631Z,66.80
2022-09-15T02:03:59.619Z,63.60
2022-09-15T02:04:59.614Z,70.70
2022-09-15T02:05:59.598Z,65.60
2022-09-15T02:06:59.608Z,65.40
2022-09-15T02:07:59.594Z,61.60
2022-09-15T02:08:59.561Z,71.10
2022-09-15T02:09:59.588Z,65.40
2022-09-15T02:10:59.546Z,65.60
2022-09-15T02:11:59.556Z,63.70
2022-09-15T02:12:59.575Z,70.80
2022-09-15T02:13:59.524Z,67.10
2022-09-15T02:14:59.508Z,59.90
2022-09-15T02:15:59.625Z,62.60
2022-09-15T02:16:59.509Z,64.10
2022-09-15T02:17:59.495Z,61.80
2022-09-15T02:18:59.474Z,58.90
2022-09-15T02:19:59.463Z,59.80
2022-09-15T02:20:59.448Z,57.50
2022-09-15T02:21:59.514Z,63.90
2022-09-15T02:22:59.431Z,64.10
2022-09-15T02:23:59.420Z,63.40
2022-09-15T02:24:59.407Z,61.10
2022-09-15T02:25:59.402Z,59.90
2022-09-15T02:26:59.406Z,66.70
2022-09-15T02:27:59.384Z,67.40
2022-09-15T02:28:59.369Z,66.40
2022-09-15T02:29:59.359Z,73.90
2022-09-15T02:30:59.353Z,72.50
2022-09-15T02:32:02.587Z,68.40
2022-09-15T02:32:59.330Z,62.60
2022-09-15T02:33:59.319Z,68.80
2022-09-15T02:34:59.314Z,74.90
2022-09-15T02:35:59.305Z,68.80
2022-09-15T02:36:59.314Z,68.50
2022-09-15T02:37:59.324Z,73.10
2022-09-15T02:38:59.277Z,65.10
2022-09-15T02:39:59.292Z,68.30
2022-09-15T02:40:59.236Z,68.40
2022-09-15T02:41:59.268Z,70.10
2022-09-15T02:42:59.234Z,70.60
2022-09-15T02:43:59.221Z,72.60
2022-09-15T02:44:59.205Z,70.90
2022-09-15T02:45:59.282Z,69.60
2022-09-15T02:46:59.189Z,70.50
2022-09-15T02:47:59.199Z,68.80
2022-09-15T02:48:59.160Z,67.90
2022-09-15T02:49:59.157Z,71.70
2022-09-15T02:50:59.158Z,70.60
2022-09-15T02:51:59.133Z,67.60
2022-09-15T02:52:59.138Z,72.00
2022-09-15T02:53:59.115Z,68.30
2022-09-15T02:54:59.107Z,71.50
2022-09-15T02:55:59.132Z,77.60
2022-09-15T02:56:59.084Z,81.90
2022-09-15T02:57:59.091Z,71.60
2022-09-15T02:58:59.064Z,72.20
2022-09-15T02:59:59.040Z,76.10
2022-09-15T03:00:59.093Z,72.40
2022-09-15T03:01:59.106Z,74.30
2022-09-15T03:02:59.041Z,69.60
2022-09-15T03:04:00.523Z,68.80
2022-09-15T03:05:31.407Z,73.70
2022-09-15T03:05:58.992Z,70.40
2022-09-15T03:06:58.981Z,72.50
2022-09-15T03:07:58.991Z,68.50
2022-09-15T03:08:58.965Z,70.10
2022-09-15T03:09:58.954Z,71.20
2022-09-15T03:10:58.944Z,73.20
2022-09-15T03:11:58.933Z,71.90
2022-09-15T03:12:58.942Z,72.20
2022-09-15T03:13:58.918Z,73.20
2022-09-15T03:14:58.910Z,78.20
2022-09-15T03:15:58.930Z,79.20
2022-09-15T03:16:58.885Z,75.80
2022-09-15T03:17:58.888Z,73.30
2022-09-15T03:18:58.859Z,70.00
2022-09-15T03:19:58.858Z,81.40
2022-09-15T03:20:58.846Z,78.50
2022-09-15T03:21:58.829Z,71.80
2022-09-15T03:22:59.837Z,86.20
2022-09-15T03:23:58.957Z,78.50
2022-09-15T03:24:58.809Z,82.60
2022-09-15T03:25:58.795Z,72.80
2022-09-15T03:26:58.787Z,73.50
2022-09-15T03:27:58.789Z,72.10
2022-09-15T03:28:58.771Z,77.50
2022-09-15T03:29:58.761Z,79.50
2022-09-15T03:30:58.739Z,74.20
2022-09-15T03:31:58.799Z,71.90
2022-09-15T03:32:58.743Z,77.10
2022-09-15T03:33:58.720Z,86.10
2022-09-15T03:34:58.831Z,84.20
2022-09-15T03:35:58.691Z,77.10
2022-09-15T03:36:58.680Z,79.40
2022-09-15T03:37:58.701Z,83.20
2022-09-15T03:38:58.656Z,84.90
2022-09-15T03:39:58.715Z,79.10
2022-09-15T03:40:58.640Z,79.80
2022-09-15T03:41:59.263Z,78.00
2022-09-15T03:42:58.632Z,102.80
2022-09-15T03:43:58.609Z,79.00
2022-09-15T03:44:58.600Z,72.20
2022-09-15T03:45:58.646Z,79.20
2022-09-15T03:46:58.578Z,87.80
2022-09-15T03:47:58.590Z,84.90
2022-09-15T03:48:58.559Z,85.00
2022-09-15T03:49:58.555Z,87.20
2022-09-15T03:50:59.216Z,93.60
2022-09-15T03:51:58.522Z,88.40
2022-09-15T03:52:59.535Z,85.20
2022-09-15T03:53:58.515Z,100.40
2022-09-15T03:54:58.492Z,88.40
2022-09-15T03:55:58.493Z,90.20
2022-09-15T03:56:58.486Z,106.50
2022-09-15T03:57:58.485Z,105.90
2022-09-15T03:58:58.459Z,100.00
2022-09-15T03:59:58.452Z,105.10
2022-09-15T04:00:58.491Z,111.40
2022-09-15T04:01:59.255Z,106.30
2022-09-15T04:02:58.436Z,121.80
2022-09-15T04:03:58.405Z,108.20
2022-09-15T04:04:58.405Z,102.00
2022-09-15T04:05:58.394Z,108.70
2022-09-15T04:06:58.383Z,116.80
2022-09-15T04:07:58.395Z,101.00
2022-09-15T04:08:58.362Z,102.30
2022-09-15T04:09:58.351Z,117.30
2022-09-15T04:10:58.341Z,116.40
2022-09-15T04:11:58.333Z,143.30
2022-09-15T04:12:59.157Z,143.70
2022-09-15T04:13:58.308Z,115.10
2022-09-15T04:14:58.298Z,128.50
2022-09-15T04:15:58.304Z,135.40
2022-09-15T04:16:58.285Z,104.60
2022-09-15T04:17:58.296Z,112.30
2022-09-15T04:18:58.260Z,115.70
2022-09-15T04:19:58.248Z,105.00
2022-09-15T04:20:58.243Z,114.30
2022-09-15T04:21:58.240Z,105.80
2022-09-15T04:22:58.237Z,111.50
2022-09-15T04:23:58.203Z,120.30
2022-09-15T04:24:58.196Z,105.40
2022-09-15T04:25:58.193Z,285.40
2022-09-15T04:26:58.182Z,151.70
2022-09-15T04:27:58.185Z,124.20
2022-09-15T04:29:01.687Z,109.50
2022-09-15T04:30:00.146Z,128.40
2022-09-15T04:30:58.174Z,106.30
2022-09-15T04:31:58.130Z,96.60
2022-09-15T04:32:58.139Z,98.00
2022-09-15T04:33:58.109Z,95.80
2022-09-15T04:34:58.097Z,106.20
2022-09-15T04:35:58.085Z,104.50
2022-09-15T04:36:58.081Z,89.70
2022-09-15T04:37:58.084Z,94.50
2022-09-15T04:38:58.064Z,91.90
2022-09-15T04:39:58.192Z,94.90
2022-09-15T04:40:58.038Z,105.40
2022-09-15T04:41:58.033Z,103.10
2022-09-15T04:42:58.042Z,97.70
2022-09-15T04:43:58.017Z,110.80
2022-09-15T04:44:58.024Z,105.00
2022-09-15T04:45:57.997Z,102.90
2022-09-15T04:46:58.031Z,105.60
2022-09-15T04:47:57.990Z,106.40
2022-09-15T04:48:57.965Z,111.20
2022-09-15T04:49:57.953Z,115.40
2022-09-15T04:50:57.947Z,106.00
2022-09-15T04:51:57.928Z,108.50
2022-09-15T04:52:58.941Z,101.00
2022-09-15T04:53:57.918Z,101.50
2022-09-15T04:54:57.904Z,98.30
2022-09-15T04:55:57.901Z,91.10
2022-09-15T04:56:57.889Z,97.70
2022-09-15T04:57:57.903Z,102.80
2022-09-15T04:59:03.247Z,100.80
2022-09-15T04:59:59.860Z,97.20
2022-09-15T05:00:57.917Z,98.80
2022-09-15T05:01:57.895Z,93.50
2022-09-15T05:02:57.821Z,99.70
2022-09-15T05:03:57.814Z,90.50
2022-09-15T05:04:57.815Z,91.70
2022-09-15T05:05:57.788Z,89.10
2022-09-15T05:06:57.797Z,88.10
2022-09-15T05:07:57.773Z,89.90
2022-09-15T05:08:57.774Z,101.00
2022-09-15T05:09:57.769Z,104.20
2022-09-15T05:10:57.746Z,97.20
2022-09-15T05:11:57.761Z,94.50
2022-09-15T05:12:57.726Z,97.80
2022-09-15T05:13:57.715Z,92.80
2022-09-15T05:14:57.711Z,104.20
2022-09-15T05:15:57.752Z,106.70
2022-09-15T05:16:57.704Z,113.80
2022-09-15T05:17:57.679Z,101.50
2022-09-15T05:18:57.666Z,114.40
2022-09-15T05:19:57.667Z,124.90
2022-09-15T05:20:57.647Z,106.70
2022-09-15T05:21:57.630Z,105.70
2022-09-15T05:22:57.648Z,90.60
2022-09-15T05:23:57.620Z,81.10
2022-09-15T05:24:57.603Z,88.00
2022-09-15T05:25:57.603Z,82.80
2022-09-15T05:26:57.585Z,91.60
2022-09-15T05:27:57.594Z,89.40
2022-09-15T05:28:57.569Z,88.80
2022-09-15T05:30:23.498Z,92.30
2022-09-15T05:30:58.615Z,100.00
2022-09-15T05:31:57.556Z,97.20
2022-09-15T05:32:57.535Z,96.10
2022-09-15T05:33:57.517Z,86.30
2022-09-15T05:34:57.517Z,87.20
2022-09-15T05:35:57.505Z,89.10
2022-09-15T05:36:57.507Z,85.50
2022-09-15T05:37:57.480Z,91.70
2022-09-15T05:38:57.469Z,94.60
2022-09-15T05:39:57.514Z,93.70
2022-09-15T05:40:57.448Z,92.60
2022-09-15T05:41:57.447Z,87.80
2022-09-15T05:42:57.430Z,89.30
2022-09-15T05:43:57.419Z,88.70
2022-09-15T05:44:57.399Z,84.70
2022-09-15T05:45:57.389Z,85.10
2022-09-15T05:46:57.434Z,84.90
2022-09-15T05:47:57.372Z,81.90
2022-09-15T05:48:57.364Z,82.30
2022-09-15T05:49:57.351Z,82.70
2022-09-15T05:50:57.346Z,84.10
2022-09-15T05:51:57.351Z,80.70
2022-09-15T05:52:57.319Z,79.20
2022-09-15T05:53:57.309Z,71.50
2022-09-15T05:54:59.334Z,70.20
2022-09-15T05:55:58.291Z,63.60
2022-09-15T05:56:57.301Z,68.60
2022-09-15T05:57:57.273Z,60.70
2022-09-15T05:58:57.260Z,62.10
2022-09-15T05:59:57.278Z,57.40
2022-09-15T06:00:57.251Z,59.20
2022-09-15T06:01:57.332Z,63.20
2022-09-15T06:02:57.365Z,60.80
2022-09-15T06:03:57.218Z,61.30
2022-09-15T06:04:57.209Z,60.50
2022-09-15T06:05:57.249Z,61.50
2022-09-15T06:06:58.748Z,63.60
2022-09-15T06:07:57.173Z,60.90
2022-09-15T06:08:58.849Z,64.70
2022-09-15T06:09:58.161Z,65.60
2022-09-15T06:10:57.144Z,67.50
2022-09-15T06:11:57.152Z,63.90
2022-09-15T06:12:57.154Z,61.40
2022-09-15T06:13:57.120Z,60.30
2022-09-15T06:14:57.110Z,61.10
2022-09-15T06:15:57.204Z,64.10
2022-09-15T06:16:57.095Z,62.20
2022-09-15T06:17:57.082Z,67.40
2022-09-15T06:18:57.064Z,63.30
2022-09-15T06:19:57.053Z,64.00
2022-09-15T06:20:57.041Z,66.70
2022-09-15T06:21:57.105Z,62.90
2022-09-15T06:22:57.028Z,62.10
2022-09-15T06:23:57.005Z,63.00
2022-09-15T06:24:58.009Z,60.50
2022-09-15T06:25:56.996Z,62.20
2022-09-15T06:26:57.253Z,57.80
2022-09-15T06:27:56.970Z,53.00
2022-09-15T06:28:56.958Z,52.50
2022-09-15T06:29:56.964Z,49.30
2022-09-15T06:30:56.952Z,47.70
2022-09-15T06:31:57.056Z,51.70
2022-09-15T06:32:56.923Z,52.10
2022-09-15T06:33:56.913Z,52.60
2022-09-15T06:34:56.910Z,46.20
2022-09-15T06:35:56.896Z,45.30
2022-09-15T06:36:56.942Z,47.40
2022-09-15T06:37:56.874Z,46.40
2022-09-15T06:38:56.873Z,47.10
2022-09-15T06:39:56.929Z,43.10
2022-09-15T06:40:56.849Z,43.50
2022-09-15T06:42:02.686Z,44.00
2022-09-15T06:42:58.829Z,43.80
2022-09-15T06:43:56.823Z,49.60
2022-09-15T06:44:56.814Z,42.70
2022-09-15T06:45:56.818Z,49.70
2022-09-15T06:46:56.803Z,46.30
2022-09-15T06:48:20.153Z,43.90
2022-09-15T06:48:58.757Z,43.30
2022-09-15T06:49:56.753Z,49.60
2022-09-15T06:50:56.738Z,44.30
2022-09-15T06:51:56.765Z,47.50
2022-09-15T06:52:56.739Z,44.90
2022-09-15T06:53:56.714Z,44.50
2022-09-15T06:54:56.708Z,43.50
2022-09-15T06:55:56.699Z,43.20
2022-09-15T06:56:56.696Z,40.50
2022-09-15T06:57:56.667Z,47.50
2022-09-15T06:58:56.680Z,43.30
2022-09-15T06:59:56.665Z,44.00
2022-09-15T07:00:56.648Z,39.70
2022-09-15T07:01:56.701Z,45.90
2022-09-15T07:02:56.800Z,44.90
2022-09-15T07:03:56.651Z,39.60
2022-09-15T07:04:56.613Z,40.30
2022-09-15T07:05:56.592Z,43.30
2022-09-15T07:06:56.605Z,43.70
2022-09-15T07:07:56.586Z,41.10
2022-09-15T07:08:56.567Z,41.70
2022-09-15T07:09:56.583Z,40.00
2022-09-15T07:10:56.542Z,40.00
2022-09-15T07:11:56.546Z,37.40
2022-09-15T07:12:56.536Z,42.40
2022-09-15T07:13:56.516Z,39.70
2022-09-15T07:14:56.506Z,39.10
2022-09-15T07:15:56.551Z,40.00
2022-09-15T07:16:56.509Z,40.40
2022-09-15T07:17:56.479Z,39.20
2022-09-15T07:18:56.474Z,39.40
2022-09-15T07:19:56.465Z,37.90
2022-09-15T07:20:56.445Z,39.70
2022-09-15T07:21:56.460Z,40.00
2022-09-15T07:22:56.426Z,40.30
2022-09-15T07:23:56.419Z,38.70
2022-09-15T07:24:56.426Z,40.10
2022-09-15T07:25:56.401Z,36.70
2022-09-15T07:26:56.412Z,38.80
2022-09-15T07:27:56.388Z,34.90
2022-09-15T07:28:56.358Z,35.40
2022-09-15T07:29:56.362Z,34.20
2022-09-15T07:30:56.354Z,32.80
2022-09-15T07:31:56.478Z,35.80
2022-09-15T07:32:56.316Z,33.00
2022-09-15T07:33:56.320Z,32.60
2022-09-15T07:34:58.344Z,35.30
2022-09-15T07:35:57.300Z,34.20
2022-09-15T07:36:56.300Z,36.10
2022-09-15T07:37:56.284Z,37.90
2022-09-15T07:38:56.271Z,35.30
2022-09-15T07:39:56.306Z,30.80
2022-09-15T07:40:56.249Z,28.50
2022-09-15T07:41:56.265Z,31.70
2022-09-15T07:42:56.254Z,27.20
2022-09-15T07:43:56.225Z,28.80
2022-09-15T07:44:56.210Z,28.90
2022-09-15T07:45:56.245Z,29.80
2022-09-15T07:46:56.207Z,32.50
2022-09-15T07:47:56.184Z,32.20
2022-09-15T07:48:56.181Z,32.40
2022-09-15T07:49:56.165Z,32.50
2022-09-15T07:50:56.164Z,32.60
2022-09-15T07:51:56.162Z,33.40
2022-09-15T07:52:56.139Z,34.90
2022-09-15T07:53:56.119Z,34.90
2022-09-15T07:54:56.112Z,30.00
2022-09-15T07:55:56.117Z,31.40
2022-09-15T07:56:56.142Z,33.10
2022-09-15T07:57:56.125Z,33.30
2022-09-15T07:58:56.090Z,33.40
2022-09-15T07:59:56.057Z,31.30
2022-09-15T08:00:56.130Z,30.30
2022-09-15T08:01:56.115Z,28.30
2022-09-15T08:02:56.033Z,33.30
2022-09-15T08:03:56.029Z,31.80
2022-09-15T08:04:56.009Z,32.10
2022-09-15T08:05:56.010Z,35.10
2022-09-15T08:06:56.004Z,33.40
2022-09-15T08:07:55.987Z,33.50
2022-09-15T08:09:00.419Z,33.90
2022-09-15T08:09:56.963Z,33.90
2022-09-15T08:10:55.955Z,33.10
2022-09-15T08:11:55.980Z,27.90
2022-09-15T08:12:55.928Z,23.80
2022-09-15T08:13:55.948Z,24.20
2022-09-15T08:14:55.914Z,18.10
2022-09-15T08:15:55.959Z,17.40
2022-09-15T08:16:55.980Z,16.70
2022-09-15T08:17:55.898Z,18.10
2022-09-15T08:18:55.868Z,19.30
2022-09-15T08:19:55.867Z,19.20
2022-09-15T08:20:55.937Z,18.90
2022-09-15T08:21:55.849Z,20.50
2022-09-15T08:22:55.841Z,18.40
2022-09-15T08:23:55.900Z,16.80
2022-09-15T08:24:56.059Z,16.80
2022-09-15T08:25:55.827Z,16.40
2022-09-15T08:26:55.797Z,17.80
2022-09-15T08:27:55.795Z,17.40
2022-09-15T08:28:55.771Z,17.40
2022-09-15T08:29:56.705Z,17.30
2022-09-15T08:30:55.877Z,15.80
2022-09-15T08:31:55.749Z,16.10
2022-09-15T08:32:55.731Z,18.50
2022-09-15T08:33:55.775Z,20.30
2022-09-15T08:34:55.738Z,16.90
2022-09-15T08:35:55.710Z,23.10
2022-09-15T08:36:55.703Z,18.90
2022-09-15T08:37:55.677Z,18.10
2022-09-15T08:38:55.666Z,17.50
2022-09-15T08:39:55.718Z,18.00
2022-09-15T08:40:55.653Z,17.20
2022-09-15T08:41:55.674Z,21.10
2022-09-15T08:42:55.638Z,16.70
2022-09-15T08:43:55.634Z,17.00
2022-09-15T08:44:55.621Z,18.40
2022-09-15T08:45:55.625Z,16.90
2022-09-15T08:46:55.653Z,19.20
2022-09-15T08:47:55.587Z,18.80
2022-09-15T08:48:57.713Z,20.40
2022-09-15T08:49:55.567Z,18.70
2022-09-15T08:50:55.550Z,17.30
2022-09-15T08:51:55.567Z,20.90
2022-09-15T08:52:55.535Z,20.30
2022-09-15T08:53:55.531Z,19.30
2022-09-15T08:54:55.516Z,18.40
2022-09-15T08:55:55.505Z,18.50
2022-09-15T08:56:55.515Z,19.60
2022-09-15T08:57:55.489Z,21.50
2022-09-15T08:58:55.516Z,18.10
2022-09-15T08:59:55.469Z,16.70
2022-09-15T09:00:55.461Z,17.00
2022-09-15T09:01:55.649Z,18.20
2022-09-15T09:02:55.507Z,22.20
2022-09-15T09:03:55.436Z,18.10
2022-09-15T09:04:55.428Z,20.40
2022-09-15T09:05:55.431Z,19.70
2022-09-15T09:06:55.395Z,19.70
2022-09-15T09:07:55.400Z,20.70
2022-09-15T09:08:55.391Z,22.10
2022-09-15T09:09:55.377Z,20.50
2022-09-15T09:10:55.386Z,19.40
2022-09-15T09:11:55.355Z,20.20
2022-09-15T09:12:55.340Z,22.40
2022-09-15T09:13:55.341Z,21.60
2022-09-15T09:14:55.329Z,21.90
2022-09-15T09:15:55.363Z,22.60
2022-09-15T09:16:55.309Z,20.70
2022-09-15T09:17:55.309Z,21.40
2022-09-15T09:18:55.277Z,21.60
2022-09-15T09:19:55.269Z,21.60
2022-09-15T09:20:55.273Z,19.80
2022-09-15T09:21:55.250Z,22.30
2022-09-15T09:22:55.236Z,21.60
2022-09-15T09:24:27.141Z,20.10
2022-09-15T09:24:55.219Z,19.10
2022-09-15T09:25:55.230Z,20.60
2022-09-15T09:26:55.195Z,19.00
2022-09-15T09:27:55.182Z,20.70
2022-09-15T09:28:55.181Z,23.20
2022-09-15T09:29:55.168Z,19.00
2022-09-15T09:30:55.241Z,17.50
2022-09-15T09:31:55.153Z,19.70
2022-09-15T09:32:55.142Z,20.00
2022-09-15T09:33:55.269Z,18.50
2022-09-15T09:34:55.119Z,19.90
2022-09-15T09:35:55.127Z,19.60
2022-09-15T09:36:55.095Z,17.90
2022-09-15T09:37:55.095Z,18.10
2022-09-15T09:38:55.083Z,17.00
2022-09-15T09:39:55.111Z,17.50
2022-09-15T09:40:59.854Z,19.80
2022-09-15T09:41:57.046Z,15.70
2022-09-15T09:42:55.029Z,13.40
2022-09-15T09:43:55.019Z,22.50
2022-09-15T09:44:56.017Z,14.50
2022-09-15T09:45:55.070Z,16.70
2022-09-15T09:46:54.991Z,12.80
2022-09-15T09:47:59.508Z,15.50
2022-09-15T09:48:57.082Z,13.10
2022-09-15T09:49:54.983Z,14.30
2022-09-15T09:50:54.962Z,13.20
2022-09-15T09:51:54.955Z,14.80
2022-09-15T09:52:54.955Z,13.60
2022-09-15T09:53:54.935Z,13.20
2022-09-15T09:54:54.939Z,12.00
2022-09-15T09:55:54.937Z,11.90
2022-09-15T09:56:54.950Z,12.50
2022-09-15T09:57:54.925Z,10.30
2022-09-15T09:58:54.902Z,11.10
2022-09-15T09:59:54.892Z,11.20
2022-09-15T10:00:54.885Z,11.30
2022-09-15T10:01:54.995Z,10.40
2022-09-15T10:02:54.855Z,11.70
2022-09-15T10:03:54.856Z,9.70
2022-09-15T10:04:55.896Z,9.70
2022-09-15T10:05:54.823Z,12.20
2022-09-15T10:06:54.831Z,10.00
2022-09-15T10:07:54.811Z,9.80
2022-09-15T10:08:54.829Z,10.00
2022-09-15T10:09:54.790Z,12.40
2022-09-15T10:10:54.775Z,9.70
2022-09-15T10:11:54.791Z,11.10
2022-09-15T10:12:54.762Z,9.70
2022-09-15T10:13:54.770Z,11.10
2022-09-15T10:14:54.755Z,12.10
2022-09-15T10:15:54.733Z,12.50
2022-09-15T10:16:54.826Z,13.20
2022-09-15T10:17:54.724Z,9.50
2022-09-15T10:18:54.749Z,10.50
2022-09-15T10:19:54.694Z,10.30
2022-09-15T10:20:54.687Z,10.00
2022-09-15T10:21:54.690Z,9.80
2022-09-15T10:22:54.666Z,9.00
2022-09-15T10:23:54.652Z,13.10
2022-09-15T10:24:54.643Z,8.60
2022-09-15T10:25:59.700Z,13.10
2022-09-15T10:26:56.648Z,11.00
2022-09-15T10:27:54.616Z,12.60
2022-09-15T10:28:54.641Z,7.20
2022-09-15T10:29:54.599Z,7.70
2022-09-15T10:30:54.626Z,11.70
2022-09-15T10:31:54.644Z,8.30
2022-09-15T10:32:54.566Z,10.40
2022-09-15T10:33:54.552Z,7.70
2022-09-15T10:34:54.543Z,8.80
2022-09-15T10:35:54.544Z,8.90
2022-09-15T10:36:54.547Z,12.30
2022-09-15T10:37:54.522Z,8.80
2022-09-15T10:38:54.497Z,9.00
2022-09-15T10:39:54.579Z,9.20
2022-09-15T10:40:54.490Z,12.00
2022-09-15T10:41:54.493Z,9.10
2022-09-15T10:42:54.456Z,12.30
2022-09-15T10:43:54.457Z,7.40
2022-09-15T10:44:54.442Z,7.80
2022-09-15T10:45:54.484Z,8.20
2022-09-15T10:46:54.432Z,11.60
2022-09-15T10:47:55.416Z,11.30
2022-09-15T10:48:54.419Z,9.10
2022-09-15T10:49:54.397Z,10.40
2022-09-15T10:50:54.388Z,9.60
2022-09-15T10:51:54.395Z,9.80
2022-09-15T10:52:54.365Z,8.10
2022-09-15T10:53:57.337Z,7.40
2022-09-15T10:54:55.339Z,9.70
2022-09-15T10:55:54.339Z,9.20
2022-09-15T10:56:54.350Z,5.80
2022-09-15T10:57:54.325Z,6.40
2022-09-15T10:58:54.352Z,8.30
2022-09-15T10:59:54.299Z,7.80
2022-09-15T11:00:54.312Z,10.00
2022-09-15T11:01:54.342Z,6.50
2022-09-15T11:02:54.269Z,8.30
2022-09-15T11:03:54.260Z,8.40
2022-09-15T11:04:54.249Z,6.70
2022-09-15T11:05:54.249Z,7.70
2022-09-15T11:06:54.252Z,7.50
2022-09-15T11:07:54.220Z,9.00
2022-09-15T11:08:54.209Z,5.40
2022-09-15T11:09:54.225Z,8.30
2022-09-15T11:10:54.182Z,9.20
2022-09-15T11:11:54.195Z,10.40
2022-09-15T11:12:54.162Z,11.10
2022-09-15T11:13:54.267Z,10.20
2022-09-15T11:14:54.137Z,8.30
2022-09-15T11:15:54.171Z,7.20
2022-09-15T11:16:54.163Z,6.20
2022-09-15T11:17:54.133Z,9.40
2022-09-15T11:18:54.190Z,9.50
2022-09-15T11:19:54.091Z,10.90
2022-09-15T11:20:54.084Z,8.00
2022-09-15T11:21:54.121Z,6.00
2022-09-15T11:22:54.074Z,8.30
2022-09-15T11:23:54.071Z,9.40
2022-09-15T11:24:54.045Z,7.10
2022-09-15T11:25:54.060Z,5.60
2022-09-15T11:26:54.038Z,8.40
2022-09-15T11:27:54.043Z,6.00
2022-09-15T11:28:54.066Z,6.80
2022-09-15T11:29:54.015Z,6.90
2022-09-15T11:30:53.982Z,6.10
2022-09-15T11:31:54.123Z,8.10
2022-09-15T11:32:55.792Z,4.30
2022-09-15T11:33:53.975Z,7.30
2022-09-15T11:34:53.944Z,8.50
2022-09-15T11:35:53.978Z,7.50
2022-09-15T11:36:53.956Z,7.40
2022-09-15T11:37:53.930Z,7.20
2022-09-15T11:38:53.964Z,6.20
2022-09-15T11:39:53.957Z,7.10
2022-09-15T11:40:53.999Z,6.90
2022-09-15T11:41:53.911Z,7.10
2022-09-15T11:42:53.864Z,4.70
2022-09-15T11:43:53.858Z,6.50
2022-09-15T11:44:53.852Z,5.80
2022-09-15T11:45:53.854Z,6.90
2022-09-15T11:46:53.944Z,4.60
2022-09-15T11:47:53.825Z,7.50
2022-09-15T11:48:53.821Z,5.30
2022-09-15T11:49:53.817Z,5.70
2022-09-15T11:50:53.810Z,8.00
2022-09-15T11:51:53.802Z,7.50
2022-09-15T11:52:53.775Z,6.80
2022-09-15T11:53:53.852Z,5.80
2022-09-15T11:54:53.779Z,5.40
2022-09-15T11:55:53.743Z,7.10
2022-09-15T11:56:53.759Z,5.60
2022-09-15T11:57:53.719Z,7.10
2022-09-15T11:58:53.699Z,6.90
2022-09-15T11:59:54.751Z,5.60
2022-09-15T12:00:53.688Z,5.90
2022-09-15T12:01:53.728Z,6.30
2022-09-15T12:02:53.705Z,4.70
2022-09-15T12:03:53.820Z,7.00
2022-09-15T12:04:53.652Z,5.40
2022-09-15T12:05:53.643Z,9.40
2022-09-15T12:06:53.687Z,7.10
2022-09-15T12:07:53.616Z,6.20
2022-09-15T12:08:53.763Z,7.80
2022-09-15T12:09:53.609Z,7.30
2022-09-15T12:10:53.575Z,6.10
2022-09-15T12:11:53.593Z,5.40
2022-09-15T12:12:53.599Z,7.60
2022-09-15T12:13:53.609Z,7.10
2022-09-15T12:14:53.543Z,7.20
2022-09-15T12:15:53.615Z,7.20
2022-09-15T12:16:53.552Z,6.90
2022-09-15T12:17:53.536Z,6.90
2022-09-15T12:18:53.534Z,10.70
2022-09-15T12:19:53.496Z,7.50
2022-09-15T12:20:53.490Z,6.80
2022-09-15T12:21:53.512Z,8.50
2022-09-15T12:22:53.468Z,8.50
2022-09-15T12:23:53.464Z,7.00
2022-09-15T12:24:53.524Z,5.50
2022-09-15T12:25:53.426Z,7.60
2022-09-15T12:26:53.452Z,6.90
2022-09-15T12:27:53.428Z,9.60
2022-09-15T12:28:53.545Z,5.10
2022-09-15T12:29:53.404Z,7.60
2022-09-15T12:30:53.468Z,6.90
2022-09-15T12:31:53.410Z,6.40
2022-09-15T12:32:53.373Z,7.80
2022-09-15T12:33:53.390Z,7.00
2022-09-15T12:34:53.373Z,6.90
2022-09-15T12:35:53.377Z,9.90
2022-09-15T12:36:53.388Z,9.70
2022-09-15T12:37:53.325Z,6.60
2022-09-15T12:38:53.449Z,6.80
2022-09-15T12:39:53.362Z,6.50
2022-09-15T12:40:53.305Z,9.10
2022-09-15T12:41:53.313Z,6.90
2022-09-15T12:42:53.285Z,5.70
2022-09-15T12:43:53.307Z,5.90
2022-09-15T12:44:53.254Z,5.30
2022-09-15T12:45:53.241Z,6.50
2022-09-15T12:46:53.294Z,5.20
2022-09-15T12:47:53.228Z,7.20
2022-09-15T12:48:53.221Z,6.80
2022-09-15T12:49:53.224Z,4.60
2022-09-15T12:50:53.239Z,7.90
2022-09-15T12:51:53.201Z,5.40
2022-09-15T12:52:53.222Z,9.60
2022-09-15T12:53:53.229Z,10.30
2022-09-15T12:54:53.175Z,5.20